Time;durP1;ratioP1;P1;durP2;ratioP2;P2;SDS_P1;SDS_P2;PMS_P1;PMS_P2;Temp;Humidity;BMP_temperature;BMP_pressure;BME280_temperature;BME280_humidity;BME280_pressure;Samples;Min_cycle;Max_cycle;Signal;HPM_P1;HPM_P2
2024/01/18 00:02:19;;;;;;;19.35;9.15;;;;;;;7.73;47.04;99056.16;4962553;28;20458;-64
2024/01/18 00:04:45;;;;;;;20.38;9.50;;;;;;;7.74;46.42;99058.66;4958967;28;20035;-64
2024/01/18 00:07:10;;;;;;;18.45;8.07;;;;;;;7.74;46.11;99063.16;4955829;28;20035;-64
2024/01/18 00:09:35;;;;;;;21.60;8.93;;;;;;;7.74;47.15;99064.00;4970750;28;20045;-64
2024/01/18 00:12:01;;;;;;;15.63;8.18;;;;;;;7.76;46.24;99074.53;4955377;28;20407;-64
2024/01/18 00:14:26;;;;;;;21.02;10.23;;;;;;;7.77;46.45;99068.19;4972972;28;20045;-64
2024/01/18 00:16:51;;;;;;;18.58;8.77;;;;;;;7.76;46.84;99071.84;4957446;28;20053;-65
2024/01/18 00:19:17;;;;;;;20.60;9.23;;;;;;;7.77;46.73;99074.34;4973279;28;20055;-65
2024/01/18 00:21:43;;;;;;;21.55;10.77;;;;;;;7.78;47.23;99075.19;4973435;28;20034;-64
2024/01/18 00:24:08;;;;;;;16.55;8.80;;;;;;;7.78;46.99;99076.03;4974751;28;20039;-64
2024/01/18 00:26:33;;;;;;;18.60;8.73;;;;;;;7.77;46.31;99087.69;4973213;28;20117;-64
2024/01/18 00:28:59;;;;;;;20.35;7.85;;;;;;;7.78;46.38;99091.19;4974691;28;20174;-64
2024/01/18 00:31:25;;;;;;;18.00;7.60;;;;;;;7.77;46.19;99092.16;4972203;28;20452;-64
2024/01/18 00:33:52;;;;;;;17.52;8.35;;;;;;;7.77;46.85;99094.81;4957275;28;20102;-64
2024/01/18 00:36:18;;;;;;;17.63;8.05;;;;;;;7.75;46.39;99092.34;4974534;28;20039;-64
2024/01/18 00:38:43;;;;;;;15.85;8.13;;;;;;;7.74;46.36;99095.97;4973124;28;20517;-64
2024/01/18 00:41:09;;;;;;;13.55;7.35;;;;;;;7.77;46.88;99103.66;4975168;28;20046;-64
2024/01/18 00:43:34;;;;;;;23.65;8.07;;;;;;;7.77;46.78;99105.50;4976062;28;20058;-65
2024/01/18 00:46:04;;;;;;;12.68;8.85;;;;;;;7.78;47.04;99097.34;4958175;28;20035;-64
2024/01/18 00:48:29;;;;;;;18.58;8.35;;;;;;;7.78;46.49;99107.19;4957198;28;20517;-64
2024/01/18 00:50:56;;;;;;;16.33;7.90;;;;;;;7.76;46.18;99104.66;4973199;28;20043;-65
2024/01/18 00:53:21;;;;;;;13.48;7.65;;;;;;;7.78;46.44;99115.16;4974378;28;20042;-64
2024/01/18 00:55:46;;;;;;;17.13;8.52;;;;;;;7.75;46.33;99110.16;4972984;28;20043;-64
2024/01/18 00:58:13;;;;;;;22.92;7.93;;;;;;;7.77;46.57;99117.00;4973145;28;20086;-63
2024/01/18 01:00:38;;;;;;;18.90;8.90;;;;;;;7.78;46.86;99123.16;4972851;28;20035;-64
2024/01/18 01:03:04;;;;;;;16.90;8.02;;;;;;;7.79;46.71;99124.84;4972876;28;20050;-64
2024/01/18 01:05:29;;;;;;;17.60;8.57;;;;;;;7.80;46.60;99126.50;4974336;28;20038;-64
2024/01/18 01:07:54;;;;;;;16.30;7.93;;;;;;;7.79;46.17;99125.66;4973009;28;20035;-63
2024/01/18 01:10:20;;;;;;;16.27;8.23;;;;;;;7.78;46.24;99136.50;4956836;28;20046;-64
2024/01/18 01:12:45;;;;;;;22.80;7.97;;;;;;;7.82;46.85;99135.19;4974093;28;20027;-64
2024/01/18 01:15:11;;;;;;;18.27;7.65;;;;;;;7.82;45.95;99140.50;4974183;28;20054;-64
2024/01/18 01:17:36;;;;;;;14.80;6.97;;;;;;;7.80;46.82;99134.50;4974003;28;20034;-63
2024/01/18 01:20:03;;;;;;;18.30;8.35;;;;;;;7.83;47.05;99142.19;4974032;28;20043;-64
2024/01/18 01:22:28;;;;;;;16.25;7.68;;;;;;;7.79;46.21;99135.50;4972674;28;20534;-64
2024/01/18 01:24:53;;;;;;;22.63;9.18;;;;;;;7.83;45.84;99147.53;4974123;28;20114;-64
2024/01/18 01:27:19;;;;;;;16.52;7.88;;;;;;;7.81;46.84;99160.16;4972645;28;20179;-64
2024/01/18 01:29:44;;;;;;;14.32;6.90;;;;;;;7.82;45.85;99162.66;4973824;28;20042;-64
2024/01/18 01:32:09;;;;;;;20.90;8.48;;;;;;;7.80;46.82;99158.50;4971802;28;20460;-64
2024/01/18 01:34:35;;;;;;;16.95;9.00;;;;;;;7.81;46.46;99154.84;4972552;28;20113;-63
2024/01/18 01:37:00;;;;;;;17.38;8.02;;;;;;;7.79;46.41;99164.81;4956412;28;20045;-64
2024/01/18 01:39:26;;;;;;;17.98;7.32;;;;;;;7.77;46.48;99169.44;4973844;28;20043;-65
2024/01/18 01:41:51;;;;;;;13.45;8.07;;;;;;;7.79;46.91;99178.97;4972693;28;20042;-64
2024/01/18 01:44:17;;;;;;;14.43;8.55;;;;;;;7.78;46.77;99176.47;4972604;28;20035;-64
2024/01/18 01:46:42;;;;;;;24.45;7.50;;;;;;;7.77;46.37;99178.28;4972742;28;20045;-65
2024/01/18 01:49:07;;;;;;;12.63;6.53;;;;;;;7.74;46.23;99177.75;4973917;28;20038;-64
2024/01/18 01:51:37;;;;;;;15.05;6.30;;;;;;;7.74;46.63;99185.75;4974208;28;20038;-64
2024/01/18 01:54:04;;;;;;;20.95;8.00;;;;;;;7.75;46.26;99176.75;4976358;28;20035;-64
2024/01/18 01:56:29;;;;;;;18.20;7.70;;;;;;;7.71;46.42;99178.88;4976392;28;20043;-64
2024/01/18 01:58:55;;;;;;;17.40;7.35;;;;;;;7.74;45.84;99181.25;4960040;28;20517;-64
2024/01/18 02:01:21;;;;;;;25.10;8.65;;;;;;;7.73;45.97;99184.09;4976102;28;20043;-64
2024/01/18 02:03:46;;;;;;;15.05;7.60;;;;;;;7.72;46.85;99182.41;4977289;28;20039;-64
2024/01/18 02:06:13;;;;;;;19.77;8.48;;;;;;;7.72;46.23;99195.72;4977327;28;20038;-64
2024/01/18 02:08:39;;;;;;;17.88;8.82;;;;;;;7.68;45.90;99186.38;4976057;28;20102;-65
2024/01/18 02:11:05;;;;;;;18.23;8.27;;;;;;;7.69;46.23;99188.88;4975983;28;20034;-65
2024/01/18 02:13:31;;;;;;;19.13;9.00;;;;;;;7.72;46.59;99187.72;4959900;28;20114;-64
2024/01/18 02:15:56;;;;;;;17.10;8.45;;;;;;;7.73;45.91;99184.09;4975804;28;20571;-64
2024/01/18 02:18:22;;;;;;;20.65;8.13;;;;;;;7.70;46.58;99182.56;4975847;28;20541;-65
2024/01/18 02:20:47;;;;;;;21.92;7.97;;;;;;;7.69;46.89;99182.69;4977008;28;20093;-65
2024/01/18 02:23:13;;;;;;;15.88;7.93;;;;;;;7.68;46.32;99178.38;4975538;28;20418;-65
2024/01/18 02:25:38;;;;;;;16.85;7.53;;;;;;;7.68;45.97;99179.19;4975339;28;20034;-65
2024/01/18 02:28:03;;;;;;;15.68;7.10;;;;;;;7.68;47.07;99186.38;4975401;28;20109;-64
2024/01/18 02:30:29;;;;;;;14.27;7.68;;;;;;;7.69;46.00;99188.03;4975617;28;20506;-64
2024/01/18 02:32:55;;;;;;;16.05;7.65;;;;;;;7.68;46.90;99186.38;4975056;28;20042;-65
2024/01/18 02:35:20;;;;;;;22.08;8.05;;;;;;;7.67;47.00;99185.53;4959271;28;20038;-64
2024/01/18 02:37:46;;;;;;;16.02;8.50;;;;;;;7.70;46.91;99184.38;4975349;28;20082;-65
2024/01/18 02:40:11;;;;;;;16.42;7.70;;;;;;;7.70;46.42;99184.38;4975492;28;20443;-64
2024/01/18 02:42:37;;;;;;;16.77;7.63;;;;;;;7.70;46.05;99189.72;4975216;28;20118;-64
2024/01/18 02:45:04;;;;;;;17.15;8.02;;;;;;;7.72;46.32;99198.38;4975374;28;20029;-64
2024/01/18 02:47:30;;;;;;;19.52;7.55;;;;;;;7.73;46.68;99194.75;4976651;28;20162;-64
2024/01/18 02:49:56;;;;;;;15.32;7.88;;;;;;;7.71;47.00;99186.88;4975264;28;20101;-64
2024/01/18 02:52:21;;;;;;;14.27;7.63;;;;;;;7.72;46.78;99191.22;4959144;28;20026;-64
2024/01/18 02:54:47;;;;;;;19.00;7.72;;;;;;;7.72;46.11;99190.38;4975460;28;20026;-64
2024/01/18 02:57:14;;;;;;;15.95;7.75;;;;;;;7.75;46.49;99187.44;4975216;28;20030;-64
2024/01/18 02:59:39;;;;;;;13.73;7.38;;;;;;;7.74;46.04;99196.41;4975306;28;20031;-64
2024/01/18 03:02:05;;;;;;;18.38;9.38;;;;;;;7.75;46.60;99192.75;4975812;28;20026;-64
2024/01/18 03:04:31;;;;;;;14.68;7.47;;;;;;;7.73;46.33;99189.41;4975290;28;20458;-63
2024/01/18 03:06:57;;;;;;;17.45;8.07;;;;;;;7.76;47.06;99194.44;4975755;28;20033;-64
2024/01/18 03:09:22;;;;;;;16.17;8.15;;;;;;;7.75;46.35;99192.75;4977411;28;20082;-64
2024/01/18 03:11:47;;;;;;;11.30;7.35;;;;;;;7.76;45.95;99192.59;4975471;28;20031;-64
2024/01/18 03:14:13;;;;;;;19.08;8.02;;;;;;;7.77;47.07;99190.75;4959635;28;20050;-64
2024/01/18 03:16:42;;;;;;;20.48;7.93;;;;;;;7.77;46.31;99191.59;4979100;28;20084;-64
2024/01/18 03:19:12;;;;;;;14.68;7.28;;;;;;;7.76;46.93;99189.13;4982354;28;20045;-64
2024/01/18 03:21:38;;;;;;;16.55;8.15;;;;;;;7.79;46.37;99194.13;4965186;28;20046;-64
2024/01/18 03:24:04;;;;;;;16.92;8.10;;;;;;;7.78;46.75;99198.63;4959054;28;20039;-64
2024/01/18 03:26:29;;;;;;;14.57;8.48;;;;;;;7.76;46.53;99189.13;4976338;28;20039;-64
2024/01/18 03:28:55;;;;;;;17.95;8.30;;;;;;;7.79;46.87;99202.13;4976157;28;20523;-64
2024/01/18 03:31:20;;;;;;;18.83;8.68;;;;;;;7.78;45.89;99208.44;4975836;28;20045;-64
2024/01/18 03:33:46;;;;;;;20.63;8.63;;;;;;;7.77;47.00;99201.44;4974446;28;20039;-63
2024/01/18 03:36:11;;;;;;;17.85;8.60;;;;;;;7.78;45.87;99198.63;4974498;28;20113;-64
2024/01/18 03:38:36;;;;;;;14.23;8.10;;;;;;;7.79;46.03;99199.47;4975679;28;20057;-64
2024/01/18 03:41:02;;;;;;;17.67;8.10;;;;;;;7.79;46.15;99196.81;4958221;28;20030;-64
2024/01/18 03:43:27;;;;;;;20.60;8.45;;;;;;;7.77;46.06;99191.59;4957997;28;20038;-63
2024/01/18 03:45:52;;;;;;;13.45;7.38;;;;;;;7.76;46.69;99199.78;4975636;28;20035;-64
2024/01/18 03:48:18;;;;;;;16.48;8.45;;;;;;;7.75;47.08;99196.25;4974273;28;20034;-64
2024/01/18 03:50:43;;;;;;;16.55;8.35;;;;;;;7.74;45.96;99202.56;4973881;28;20114;-64
2024/01/18 03:53:09;;;;;;;19.02;7.93;;;;;;;7.74;46.86;99207.91;4974200;28;20041;-64
2024/01/18 03:55:35;;;;;;;22.67;7.60;;;;;;;7.74;47.19;99223.03;4974251;28;20061;-64
2024/01/18 03:58:02;;;;;;;19.60;8.25;;;;;;;7.74;46.71;99223.88;4975326;28;20889;-64
2024/01/18 04:00:28;;;;;;;15.70;8.45;;;;;;;7.72;46.96;99215.22;4958088;28;20035;-64
2024/01/18 04:02:53;;;;;;;16.83;8.73;;;;;;;7.77;46.10;99230.75;4973997;28;20384;-64
2024/01/18 04:05:19;;;;;;;17.27;8.60;;;;;;;7.74;46.31;99225.72;4975234;28;20102;-64
2024/01/18 04:07:44;;;;;;;18.95;8.60;;;;;;;7.73;47.01;99230.22;4957556;28;20042;-64
2024/01/18 04:10:10;;;;;;;22.80;8.57;;;;;;;7.74;46.82;99225.72;4973755;28;20043;-64
2024/01/18 04:12:36;;;;;;;18.10;7.97;;;;;;;7.75;46.32;99230.06;4957338;28;20035;-64
2024/01/18 04:15:01;;;;;;;14.73;7.65;;;;;;;7.77;46.53;99233.41;4972110;28;20450;-64
2024/01/18 04:17:26;;;;;;;23.30;7.40;;;;;;;7.77;46.79;99233.41;4973753;28;20069;-65
2024/01/18 04:19:52;;;;;;;20.13;9.00;;;;;;;7.79;46.84;99236.78;4973479;28;20414;-64
2024/01/18 04:22:17;;;;;;;16.58;8.65;;;;;;;7.80;46.02;99235.78;4974891;28;20066;-65
2024/01/18 04:24:44;;;;;;;19.00;9.40;;;;;;;7.79;47.15;99226.94;4957567;28;20038;-64
2024/01/18 04:27:10;;;;;;;17.40;8.73;;;;;;;7.79;45.80;99228.78;4972560;28;20053;-65
2024/01/18 04:29:35;;;;;;;13.65;7.43;;;;;;;7.78;46.59;99232.44;4973321;28;20421;-65
2024/01/18 04:32:01;;;;;;;17.55;7.82;;;;;;;7.77;46.07;99239.59;4957314;28;20078;-64
2024/01/18 04:34:26;;;;;;;20.20;8.48;;;;;;;7.72;46.93;99235.69;4973331;28;20054;-65
2024/01/18 04:36:53;;;;;;;17.90;8.10;;;;;;;7.69;46.86;99242.16;4957226;28;20035;-65
2024/01/18 04:39:19;;;;;;;17.35;8.13;;;;;;;7.65;46.91;99240.78;4973509;28;20034;-64
2024/01/18 04:41:44;;;;;;;16.13;7.75;;;;;;;7.64;46.14;99252.44;4973430;28;20122;-65
2024/01/18 04:44:09;;;;;;;15.70;7.80;;;;;;;7.60;46.51;99257.22;4974603;28;20499;-64
2024/01/18 04:46:35;;;;;;;14.63;7.32;;;;;;;7.58;45.67;99255.69;4955299;28;20122;-64
2024/01/18 04:49:00;;;;;;;14.15;7.45;;;;;;;7.53;45.60;99256.16;4955092;28;20058;-64
2024/01/18 04:51:25;;;;;;;13.00;7.95;;;;;;;7.52;45.83;99262.44;4955212;28;20039;-64
2024/01/18 04:53:51;;;;;;;21.52;8.75;;;;;;;7.52;46.63;99272.25;4955211;28;20454;-64
2024/01/18 04:56:16;;;;;;;22.42;8.05;;;;;;;7.50;46.13;99280.41;4953839;28;20043;-64
2024/01/18 04:58:43;;;;;;;16.98;8.27;;;;;;;7.51;46.04;99283.91;4955206;28;20043;-64
2024/01/18 05:01:09;;;;;;;16.65;7.60;;;;;;;7.50;46.22;99290.22;4955115;28;20047;-64
2024/01/18 05:03:34;;;;;;;16.38;7.32;;;;;;;7.48;46.62;99282.38;4953671;28;20384;-64
2024/01/18 05:06:00;;;;;;;17.65;9.25;;;;;;;7.48;46.01;99285.03;4954924;28;20067;-64
2024/01/18 05:08:25;;;;;;;13.20;7.28;;;;;;;7.45;45.80;99284.50;4953774;28;20031;-64
2024/01/18 05:10:50;;;;;;;15.98;7.20;;;;;;;7.43;45.96;99300.63;4953112;28;20166;-64
2024/01/18 05:13:16;;;;;;;13.70;6.88;;;;;;;7.40;46.12;99305.41;4952911;28;20039;-64
2024/01/18 05:15:41;;;;;;;17.83;8.48;;;;;;;7.35;45.81;99300.53;4954094;28;20491;-64
2024/01/18 05:18:07;;;;;;;16.70;8.27;;;;;;;7.34;46.77;99298.84;4955029;28;20482;-64
2024/01/18 05:20:33;;;;;;;15.02;7.78;;;;;;;7.31;46.00;99296.50;4955031;28;20027;-64
2024/01/18 05:22:59;;;;;;;15.70;7.40;;;;;;;7.28;45.77;99296.78;4964956;28;20072;-64
2024/01/18 05:25:25;;;;;;;17.95;8.13;;;;;;;7.29;46.88;99309.09;4958100;28;20066;-64
2024/01/18 05:27:50;;;;;;;25.70;8.52;;;;;;;7.28;45.87;99310.09;4977780;28;20133;-64
2024/01/18 05:30:15;;;;;;;21.85;8.13;;;;;;;7.27;46.44;99319.06;4976654;28;20117;-64
2024/01/18 05:32:41;;;;;;;16.60;9.15;;;;;;;7.27;46.31;99316.41;4976674;28;20445;-64
2024/01/18 05:35:06;;;;;;;15.27;7.00;;;;;;;7.25;46.34;99312.19;4976716;28;20038;-65
2024/01/18 05:37:32;;;;;;;15.00;7.88;;;;;;;7.26;46.67;99306.72;4976414;28;20043;-64
2024/01/18 05:39:57;;;;;;;17.85;7.63;;;;;;;7.27;45.76;99320.88;4976487;28;20066;-64
2024/01/18 05:42:23;;;;;;;16.40;8.13;;;;;;;7.25;45.77;99318.38;4978079;28;20039;-64
2024/01/18 05:44:49;;;;;;;17.83;8.52;;;;;;;7.23;46.02;99320.31;4960334;28;20081;-64
2024/01/18 05:47:14;;;;;;;18.17;8.95;;;;;;;7.24;46.05;99330.00;4977089;28;20043;-64
2024/01/18 05:49:40;;;;;;;20.80;8.45;;;;;;;7.23;46.09;99332.81;4976811;28;20043;-64
2024/01/18 05:52:06;;;;;;;18.17;7.90;;;;;;;7.22;45.88;99339.97;4976847;28;20093;-64
2024/01/18 05:54:33;;;;;;;17.42;7.97;;;;;;;7.20;45.82;99341.94;4974496;28;20119;-65
2024/01/18 05:57:02;;;;;;;16.98;8.30;;;;;;;7.18;46.08;99349.22;4981934;28;20042;-64
2024/01/18 05:59:30;;;;;;;18.75;8.32;;;;;;;7.17;46.00;99344.88;4962833;28;20502;-64
2024/01/18 06:01:56;;;;;;;16.88;8.57;;;;;;;7.13;45.81;99346.16;4960057;28;20067;-64
2024/01/18 06:04:22;;;;;;;23.48;8.85;;;;;;;7.13;46.90;99356.78;4976210;28;20058;-64
2024/01/18 06:06:47;;;;;;;18.63;8.52;;;;;;;7.11;46.27;99352.59;4977283;28;20030;-64
2024/01/18 06:09:16;;;;;;;18.80;7.68;;;;;;;7.09;45.89;99366.03;4976021;28;20034;-64
2024/01/18 06:11:42;;;;;;;19.42;8.35;;;;;;;7.03;45.49;99369.28;4977275;28;20608;-64
2024/01/18 06:14:08;;;;;;;12.15;8.27;;;;;;;6.98;45.57;99368.84;4975917;28;20039;-64
2024/01/18 06:16:33;;;;;;;16.13;7.88;;;;;;;6.93;45.33;99371.97;4977275;28;20410;-64
2024/01/18 06:18:59;;;;;;;16.20;7.40;;;;;;;6.92;46.07;99375.59;4975892;28;20379;-64
2024/01/18 06:21:24;;;;;;;17.15;7.80;;;;;;;6.88;46.03;99378.69;4977065;28;20030;-64
2024/01/18 06:23:49;;;;;;;15.23;8.20;;;;;;;6.89;46.01;99391.03;4977003;28;20047;-64
2024/01/18 06:26:15;;;;;;;17.88;7.80;;;;;;;6.88;46.26;99394.66;4975450;28;20379;-64
2024/01/18 06:28:40;;;;;;;18.77;9.25;;;;;;;6.88;46.73;99394.66;4975324;28;20054;-64
2024/01/18 06:31:06;;;;;;;16.50;8.45;;;;;;;6.87;45.20;99398.28;4976828;28;20039;-64
2024/01/18 06:33:31;;;;;;;18.63;8.57;;;;;;;6.85;46.77;99400.25;4959390;28;20049;-64
2024/01/18 06:35:56;;;;;;;13.65;7.43;;;;;;;6.84;46.64;99398.59;4975370;28;20406;-64
2024/01/18 06:38:22;;;;;;;17.27;7.35;;;;;;;6.78;46.24;99405.31;4976070;28;20523;-64
2024/01/18 06:40:48;;;;;;;16.20;8.35;;;;;;;6.74;45.23;99409.22;4977039;28;20034;-64
2024/01/18 06:43:16;;;;;;;19.52;9.13;;;;;;;6.65;46.10;99402.06;4975438;28;20510;-63
2024/01/18 06:45:42;;;;;;;22.02;9.38;;;;;;;6.64;45.79;99410.22;4959191;28;20034;-64
2024/01/18 06:48:07;;;;;;;12.68;7.88;;;;;;;6.59;46.53;99421.25;4943341;28;20049;-64
2024/01/18 06:50:33;;;;;;;20.00;8.60;;;;;;;6.57;45.87;99427.69;4959633;28;20093;-64
2024/01/18 06:52:59;;;;;;;19.85;8.85;;;;;;;6.53;45.38;99428.97;4975230;28;20043;-63
2024/01/18 06:55:28;;;;;;;13.13;6.88;;;;;;;6.51;45.86;99436.22;4975334;28;20046;-63
2024/01/18 06:57:53;;;;;;;12.75;6.40;;;;;;;6.45;45.25;99445.59;4976395;28;20117;-64
2024/01/18 07:00:28;;;;;;;15.77;6.65;;;;;;;6.39;46.31;99446.97;4975000;28;20505;-64
2024/01/18 07:02:53;;;;;;;14.85;8.30;;;;;;;6.37;45.24;99451.59;4959699;28;20142;-64
2024/01/18 07:05:19;;;;;;;16.70;8.15;;;;;;;6.33;44.85;99458.19;4979411;28;20120;-64
2024/01/18 07:07:44;;;;;;;21.05;8.10;;;;;;;6.30;45.86;99457.59;4974835;28;20568;-63
2024/01/18 07:10:10;;;;;;;37.05;11.55;;;;;;;6.26;44.68;99462.34;4974945;28;20042;-64
2024/01/18 07:12:36;;;;;;;29.15;9.25;;;;;;;6.24;45.15;99469.63;4974640;28;20030;-63
2024/01/18 07:15:01;;;;;;;15.05;7.85;;;;;;;6.18;46.38;99459.53;4974971;28;20041;-63
2024/01/18 07:17:27;;;;;;;10.68;5.35;;;;;;;6.11;44.84;99463.72;4958359;28;20035;-64
2024/01/18 07:19:56;;;;;;;7.32;4.35;;;;;;;6.01;44.71;99467.28;4976567;28;20043;-64
2024/01/18 07:22:21;;;;;;;5.10;3.78;;;;;;;5.86;44.31;99465.00;4976393;28;20088;-64
2024/01/18 07:24:47;;;;;;;10.60;5.88;;;;;;;5.78;44.57;99477.22;4975173;28;20039;-64
2024/01/18 07:27:13;;;;;;;10.73;5.90;;;;;;;5.65;44.94;99477.44;4975478;28;20062;-64
2024/01/18 07:29:38;;;;;;;12.50;6.15;;;;;;;5.61;44.24;99485.81;4974606;28;20035;-64
2024/01/18 07:32:05;;;;;;;17.63;7.30;;;;;;;5.57;44.64;99487.03;4974775;28;20038;-64
2024/01/18 07:34:33;;;;;;;33.33;11.73;;;;;;;5.52;45.77;99491.91;4975839;28;20513;-64
2024/01/18 07:36:59;;;;;;;18.23;7.05;;;;;;;5.49;44.26;99492.16;4958506;28;20043;-64
2024/01/18 07:39:24;;;;;;;18.75;7.40;;;;;;;5.43;45.17;99482.91;4974399;28;20046;-64
2024/01/18 07:41:49;;;;;;;13.73;5.50;;;;;;;5.38;45.12;99489.56;4975626;28;20045;-64
2024/01/18 07:44:15;;;;;;;13.48;6.57;;;;;;;5.29;44.55;99491.19;4973986;28;20062;-64
2024/01/18 07:46:40;;;;;;;10.52;5.15;;;;;;;5.21;44.18;99499.81;4975490;28;20042;-64
2024/01/18 07:49:05;;;;;;;10.52;5.72;;;;;;;5.13;45.11;99518.19;4974283;28;20134;-64
2024/01/18 07:51:31;;;;;;;12.85;4.75;;;;;;;5.02;44.59;99518.22;4974047;28;20043;-63
2024/01/18 07:53:56;;;;;;;12.10;5.88;;;;;;;4.96;44.66;99525.84;4974087;28;20113;-64
2024/01/18 07:56:21;;;;;;;12.68;6.00;;;;;;;4.91;44.92;99531.53;4975223;28;20046;-64
2024/01/18 07:58:47;;;;;;;15.13;6.13;;;;;;;4.86;44.88;99522.25;4956694;28;20050;-65
2024/01/18 08:01:15;;;;;;;13.15;6.72;;;;;;;4.82;44.71;99526.13;4974932;28;20038;-64
2024/01/18 08:03:41;;;;;;;16.25;7.95;;;;;;;4.84;43.68;99537.44;4957376;28;20046;-64
2024/01/18 08:06:06;;;;;;;11.73;5.78;;;;;;;4.82;44.21;99537.56;4973691;28;20039;-64
2024/01/18 08:08:32;;;;;;;8.60;4.82;;;;;;;4.76;44.68;99546.03;4972775;28;20083;-64
2024/01/18 08:10:57;;;;;;;7.18;3.95;;;;;;;4.69;44.72;99556.28;4975017;28;20498;-64
2024/01/18 08:13:23;;;;;;;9.00;4.93;;;;;;;4.64;44.24;99562.91;4974904;28;20565;-64
2024/01/18 08:15:48;;;;;;;11.90;6.13;;;;;;;4.60;43.91;99556.19;4973553;28;20035;-64
2024/01/18 08:18:15;;;;;;;8.00;4.55;;;;;;;4.57;44.59;99561.72;4973512;28;20037;-64
2024/01/18 08:20:40;;;;;;;6.50;3.42;;;;;;;4.56;44.81;99560.03;4973328;28;20039;-64
2024/01/18 08:23:06;;;;;;;8.30;4.30;;;;;;;4.50;43.56;99565.81;4973280;28;20058;-64
2024/01/18 08:25:32;;;;;;;9.65;5.40;;;;;;;4.47;44.48;99566.91;4973205;28;20125;-63
2024/01/18 08:27:57;;;;;;;11.97;6.90;;;;;;;4.44;42.82;99576.94;4973134;28;20055;-64
2024/01/18 08:30:22;;;;;;;12.33;6.67;;;;;;;4.42;44.67;99578.84;4973738;28;20045;-63
2024/01/18 08:32:48;;;;;;;11.25;6.80;;;;;;;4.40;42.86;99581.63;4973635;28;20517;-63
2024/01/18 08:35:13;;;;;;;10.85;6.40;;;;;;;4.44;44.22;99587.53;4973350;28;20041;-63
2024/01/18 08:37:38;;;;;;;11.70;5.63;;;;;;;4.49;44.25;99590.66;4956844;28;20035;-63
2024/01/18 08:40:05;;;;;;;7.35;4.30;;;;;;;4.50;44.20;99592.34;4974194;28;20585;-63
2024/01/18 08:42:31;;;;;;;8.82;5.85;;;;;;;4.53;44.33;99598.25;4956633;28;20074;-64
2024/01/18 08:44:56;;;;;;;8.27;4.85;;;;;;;4.55;42.91;99614.03;4974330;28;20124;-63
2024/01/18 08:47:22;;;;;;;8.73;5.38;;;;;;;4.55;44.34;99612.22;4957158;28;20038;-64
2024/01/18 08:49:48;;;;;;;11.35;6.18;;;;;;;4.57;43.74;99620.06;4973181;28;20097;-63
2024/01/18 08:52:13;;;;;;;10.13;6.68;;;;;;;4.62;44.56;99625.84;4956839;28;20043;-63
2024/01/18 08:54:38;;;;;;;13.95;6.20;;;;;;;4.65;44.35;99631.75;4973233;28;20042;-63
2024/01/18 08:57:04;;;;;;;18.40;8.65;;;;;;;4.73;43.32;99636.44;4974445;28;20053;-63
2024/01/18 08:59:29;;;;;;;16.35;7.25;;;;;;;4.81;44.14;99649.94;4974167;28;20058;-64
2024/01/18 09:01:55;;;;;;;13.95;7.15;;;;;;;4.84;44.82;99644.38;4973120;28;20115;-63
2024/01/18 09:04:20;;;;;;;16.80;8.18;;;;;;;4.90;43.42;99653.66;4974234;28;20042;-63
2024/01/18 09:06:45;;;;;;;23.42;8.35;;;;;;;4.92;43.06;99654.38;4956670;28;20035;-63
2024/01/18 09:09:11;;;;;;;15.95;7.72;;;;;;;4.96;43.41;99667.28;4972861;28;20042;-63
2024/01/18 09:11:37;;;;;;;15.82;7.85;;;;;;;4.98;43.93;99665.34;4956560;28;20126;-63
2024/01/18 09:14:03;;;;;;;13.77;6.88;;;;;;;4.99;43.71;99664.41;4972753;28;20518;-64
2024/01/18 09:16:30;;;;;;;17.90;8.18;;;;;;;5.04;43.90;99683.44;4972988;28;20043;-63
2024/01/18 09:18:55;;;;;;;16.10;8.13;;;;;;;5.04;44.02;99680.78;4972778;28;20050;-64
2024/01/18 09:21:21;;;;;;;17.08;8.65;;;;;;;5.07;43.47;99677.91;4956443;28;20031;-64
2024/01/18 09:23:46;;;;;;;15.85;9.02;;;;;;;5.12;44.22;99688.13;4954771;28;20031;-63
2024/01/18 09:26:12;;;;;;;18.40;9.00;;;;;;;5.16;44.04;99690.44;4953635;28;20023;-64
2024/01/18 09:28:37;;;;;;;20.30;9.45;;;;;;;5.21;44.30;99696.22;4954481;28;20047;-64
2024/01/18 09:31:02;;;;;;;20.58;9.18;;;;;;;5.26;43.40;99704.63;4953340;28;20057;-64
2024/01/18 09:33:28;;;;;;;29.48;11.55;;;;;;;5.37;44.50;99705.56;4954704;28;20082;-63
2024/01/18 09:35:54;;;;;;;24.75;11.32;;;;;;;5.41;44.50;99699.06;4954947;28;20031;-63
2024/01/18 09:38:19;;;;;;;20.38;10.90;;;;;;;5.50;43.92;99703.63;4953538;28;20030;-63
2024/01/18 09:40:45;;;;;;;30.10;11.63;;;;;;;5.58;44.88;99719.78;4953419;28;20031;-63
2024/01/18 09:43:11;;;;;;;27.75;11.43;;;;;;;5.67;44.08;99721.66;4937449;28;20031;-63
2024/01/18 09:45:41;;;;;;;31.85;12.60;;;;;;;5.76;45.45;99723.56;4953680;28;20031;-63
2024/01/18 09:48:07;;;;;;;37.63;12.40;;;;;;;5.85;45.18;99730.81;4937362;28;20090;-63
2024/01/18 09:50:36;;;;;;;25.77;11.38;;;;;;;6.03;45.29;99736.44;4971064;28;20030;-64
2024/01/18 09:53:01;;;;;;;22.63;10.70;;;;;;;6.17;44.54;99750.25;4972717;28;20081;-64
2024/01/18 09:55:27;;;;;;;24.92;11.30;;;;;;;6.35;44.60;99753.19;4956701;28;20030;-64
2024/01/18 09:57:55;;;;;;;19.20;11.25;;;;;;;6.56;44.88;99758.53;4974240;28;20077;-64
2024/01/18 10:00:24;;;;;;;26.02;11.27;;;;;;;6.77;44.45;99764.66;4956617;28;20075;-64
2024/01/18 10:02:52;;;;;;;24.63;10.82;;;;;;;6.96;45.27;99770.09;4956680;28;20039;-64
2024/01/18 10:05:18;;;;;;;24.92;9.98;;;;;;;7.19;45.14;99771.63;4972804;28;20557;-64
2024/01/18 10:07:43;;;;;;;17.88;8.95;;;;;;;7.41;44.84;99776.75;4972615;28;20035;-64
2024/01/18 10:10:12;;;;;;;29.42;9.00;;;;;;;7.59;44.75;99772.44;4972390;28;20093;-64
2024/01/18 10:12:40;;;;;;;16.95;7.88;;;;;;;7.78;45.21;99778.81;4974251;28;20047;-65
2024/01/18 10:15:06;;;;;;;18.30;8.60;;;;;;;7.97;44.44;99776.16;4976172;28;20046;-64
2024/01/18 10:17:31;;;;;;;17.02;9.27;;;;;;;8.26;44.22;99790.38;4960478;28;20050;-64
2024/01/18 10:19:58;;;;;;;19.83;8.85;;;;;;;8.42;44.55;99785.34;4976255;28;20463;-64
2024/01/18 10:22:23;;;;;;;24.85;9.20;;;;;;;8.67;44.02;99800.78;4959875;28;20506;-64
2024/01/18 10:24:49;;;;;;;15.27;8.48;;;;;;;8.84;44.76;99795.69;4976030;28;20093;-64
2024/01/18 10:27:15;;;;;;;18.05;9.88;;;;;;;8.92;44.32;99795.81;4975531;28;20042;-64
2024/01/18 10:29:40;;;;;;;19.27;9.48;;;;;;;9.09;44.59;99789.72;4975961;28;20046;-63
2024/01/18 10:32:09;;;;;;;17.80;9.20;;;;;;;9.22;44.23;99801.75;4959623;28;20039;-64
2024/01/18 10:34:35;;;;;;;14.45;8.40;;;;;;;9.28;45.46;99795.00;4975650;28;20101;-63
2024/01/18 10:37:00;;;;;;;16.33;9.45;;;;;;;9.41;44.44;99802.69;4977058;28;20113;-63
2024/01/18 10:39:26;;;;;;;12.80;7.90;;;;;;;9.54;43.95;99806.72;4959532;28;20435;-63
2024/01/18 10:41:51;;;;;;;17.52;9.32;;;;;;;9.65;44.69;99813.69;4975350;28;20030;-63
2024/01/18 10:44:17;;;;;;;12.55;7.60;;;;;;;9.76;44.43;99819.69;4975571;28;20045;-63
2024/01/18 10:46:43;;;;;;;10.27;6.95;;;;;;;9.83;44.50;99818.09;4975362;28;20042;-63
2024/01/18 10:49:08;;;;;;;11.13;6.53;;;;;;;9.95;44.37;99824.94;4975266;28;20043;-64
2024/01/18 10:51:36;;;;;;;12.70;7.68;;;;;;;10.07;44.47;99830.06;4975631;28;20038;-66
2024/01/18 10:54:03;;;;;;;11.30;7.43;;;;;;;10.02;44.64;99832.34;4959251;28;20527;-65
2024/01/18 10:56:28;;;;;;;15.15;7.32;;;;;;;10.13;44.65;99829.50;4975528;28;20058;-65
2024/01/18 10:58:53;;;;;;;17.48;6.65;;;;;;;10.14;44.64;99837.38;4958989;28;20128;-65
2024/01/18 11:01:21;;;;;;;12.68;8.27;;;;;;;10.21;44.26;99853.66;4976635;28;20509;-65
2024/01/18 11:03:46;;;;;;;20.45;8.25;;;;;;;10.27;44.89;99853.88;4975427;28;20035;-65
2024/01/18 11:06:12;;;;;;;13.98;9.23;;;;;;;10.35;44.04;99845.13;4975915;28;20417;-65
2024/01/18 11:08:40;;;;;;;14.77;7.32;;;;;;;10.40;44.72;99854.38;4959730;28;20035;-66
2024/01/18 11:11:06;;;;;;;13.18;8.70;;;;;;;10.43;44.31;99861.25;4961064;28;20031;-65
2024/01/18 11:13:32;;;;;;;17.35;8.55;;;;;;;10.49;44.43;99860.66;4979394;28;20043;-65
2024/01/18 11:15:58;;;;;;;17.83;8.90;;;;;;;10.54;44.15;99861.03;4961398;28;20490;-65
2024/01/18 11:18:23;;;;;;;15.68;8.65;;;;;;;10.49;44.34;99856.16;4976885;28;20050;-65
2024/01/18 11:20:58;;;;;;;21.75;8.93;;;;;;;10.64;44.72;99867.16;4976088;28;20534;-68
2024/01/18 11:23:27;;;;;;;18.42;8.88;;;;;;;10.73;44.71;99876.09;4977391;28;20046;-70
2024/01/18 11:25:53;;;;;;;19.80;10.57;;;;;;;10.80;44.40;99878.03;4976626;28;20494;-65